sensor_id;sensor_type;location;lat;lon;timestamp;P1;durP1;ratioP1;P2;durP2;ratioP2
68475;SDS011;55464;48.266;14.188;2023-10-31T00:01:12;5.88;;;2.90;;
68475;SDS011;55464;48.266;14.188;2023-10-31T00:03:37;3.85;;;3.05;;
68475;SDS011;55464;48.266;14.188;2023-10-31T00:06:05;3.97;;;3.58;;
68475;SDS011;55464;48.266;14.188;2023-10-31T00:08:31;6.78;;;3.50;;
68475;SDS011;55464;48.266;14.188;2023-10-31T00:10:56;6.47;;;3.63;;
68475;SDS011;55464;48.266;14.188;2023-10-31T00:13:22;9.32;;;3.30;;
68475;SDS011;55464;48.266;14.188;2023-10-31T00:15:47;6.40;;;4.22;;
68475;SDS011;55464;48.266;14.188;2023-10-31T00:18:12;5.63;;;4.15;;
68475;SDS011;55464;48.266;14.188;2023-10-31T00:20:38;6.20;;;4.07;;
68475;SDS011;55464;48.266;14.188;2023-10-31T00:23:03;5.95;;;4.25;;
68475;SDS011;55464;48.266;14.188;2023-10-31T00:25:28;6.50;;;4.00;;
68475;SDS011;55464;48.266;14.188;2023-10-31T00:27:54;7.75;;;4.90;;
68475;SDS011;55464;48.266;14.188;2023-10-31T00:30:19;5.70;;;4.47;;
68475;SDS011;55464;48.266;14.188;2023-10-31T00:32:46;5.35;;;4.40;;
68475;SDS011;55464;48.266;14.188;2023-10-31T00:35:11;5.82;;;4.30;;
68475;SDS011;55464;48.266;14.188;2023-10-31T00:37:37;9.40;;;4.55;;
68475;SDS011;55464;48.266;14.188;2023-10-31T00:40:05;4.82;;;3.88;;
68475;SDS011;55464;48.266;14.188;2023-10-31T00:42:31;4.57;;;3.63;;
68475;SDS011;55464;48.266;14.188;2023-10-31T00:44:57;4.38;;;3.97;;
68475;SDS011;55464;48.266;14.188;2023-10-31T00:47:22;6.00;;;3.97;;
68475;SDS011;55464;48.266;14.188;2023-10-31T00:49:48;5.43;;;4.28;;
68475;SDS011;55464;48.266;14.188;2023-10-31T00:52:13;4.57;;;3.95;;
68475;SDS011;55464;48.266;14.188;2023-10-31T00:54:38;6.57;;;4.07;;
68475;SDS011;55464;48.266;14.188;2023-10-31T00:57:04;4.60;;;3.60;;
68475;SDS011;55464;48.266;14.188;2023-10-31T00:59:29;4.45;;;3.35;;
68475;SDS011;55464;48.266;14.188;2023-10-31T01:01:55;3.50;;;3.05;;
68475;SDS011;55464;48.266;14.188;2023-10-31T01:04:20;3.55;;;2.63;;
68475;SDS011;55464;48.266;14.188;2023-10-31T01:06:46;4.25;;;2.58;;
68475;SDS011;55464;48.266;14.188;2023-10-31T01:09:11;2.55;;;2.30;;
68475;SDS011;55464;48.266;14.188;2023-10-31T01:11:38;2.40;;;1.90;;
68475;SDS011;55464;48.266;14.188;2023-10-31T01:14:03;8.13;;;2.22;;
68475;SDS011;55464;48.266;14.188;2023-10-31T01:16:29;2.58;;;2.17;;
68475;SDS011;55464;48.266;14.188;2023-10-31T01:18:55;3.28;;;1.77;;
68475;SDS011;55464;48.266;14.188;2023-10-31T01:21:20;3.67;;;2.10;;
68475;SDS011;55464;48.266;14.188;2023-10-31T01:23:45;3.38;;;2.17;;
68475;SDS011;55464;48.266;14.188;2023-10-31T01:26:11;6.93;;;1.98;;
68475;SDS011;55464;48.266;14.188;2023-10-31T01:28:36;3.45;;;2.20;;
68475;SDS011;55464;48.266;14.188;2023-10-31T01:31:02;3.60;;;2.67;;
68475;SDS011;55464;48.266;14.188;2023-10-31T01:33:27;7.93;;;2.50;;
68475;SDS011;55464;48.266;14.188;2023-10-31T01:35:53;6.90;;;2.30;;
68475;SDS011;55464;48.266;14.188;2023-10-31T01:38:18;2.67;;;2.30;;
68475;SDS011;55464;48.266;14.188;2023-10-31T01:40:43;3.03;;;1.95;;
68475;SDS011;55464;48.266;14.188;2023-10-31T01:43:10;3.15;;;2.42;;
68475;SDS011;55464;48.266;14.188;2023-10-31T01:45:36;4.00;;;2.47;;
68475;SDS011;55464;48.266;14.188;2023-10-31T01:48:01;4.40;;;2.35;;
68475;SDS011;55464;48.266;14.188;2023-10-31T01:50:27;5.63;;;2.72;;
68475;SDS011;55464;48.266;14.188;2023-10-31T01:52:53;4.18;;;2.72;;
68475;SDS011;55464;48.266;14.188;2023-10-31T01:55:19;3.38;;;2.65;;
68475;SDS011;55464;48.266;14.188;2023-10-31T01:57:44;4.53;;;3.05;;
68475;SDS011;55464;48.266;14.188;2023-10-31T02:00:12;4.90;;;2.67;;
68475;SDS011;55464;48.266;14.188;2023-10-31T02:05:05;3.28;;;2.85;;
68475;SDS011;55464;48.266;14.188;2023-10-31T02:07:31;3.53;;;2.65;;
68475;SDS011;55464;48.266;14.188;2023-10-31T02:09:57;4.00;;;3.20;;
68475;SDS011;55464;48.266;14.188;2023-10-31T02:12:31;5.03;;;2.95;;
68475;SDS011;55464;48.266;14.188;2023-10-31T02:14:58;3.95;;;3.55;;
68475;SDS011;55464;48.266;14.188;2023-10-31T02:17:24;4.55;;;3.15;;
68475;SDS011;55464;48.266;14.188;2023-10-31T02:19:49;3.75;;;2.90;;
68475;SDS011;55464;48.266;14.188;2023-10-31T02:22:15;5.50;;;4.10;;
68475;SDS011;55464;48.266;14.188;2023-10-31T02:24:40;4.18;;;3.70;;
68475;SDS011;55464;48.266;14.188;2023-10-31T02:27:05;5.78;;;3.97;;
68475;SDS011;55464;48.266;14.188;2023-10-31T02:29:31;6.68;;;3.50;;
68475;SDS011;55464;48.266;14.188;2023-10-31T02:31:56;4.85;;;3.92;;
68475;SDS011;55464;48.266;14.188;2023-10-31T02:34:22;4.22;;;3.75;;
68475;SDS011;55464;48.266;14.188;2023-10-31T02:36:47;3.65;;;3.35;;
68475;SDS011;55464;48.266;14.188;2023-10-31T02:39:12;5.30;;;3.42;;
68475;SDS011;55464;48.266;14.188;2023-10-31T02:41:38;5.80;;;3.35;;
68475;SDS011;55464;48.266;14.188;2023-10-31T02:44:03;4.50;;;4.10;;
68475;SDS011;55464;48.266;14.188;2023-10-31T02:46:29;3.88;;;3.30;;
68475;SDS011;55464;48.266;14.188;2023-10-31T02:48:54;3.92;;;3.35;;
68475;SDS011;55464;48.266;14.188;2023-10-31T02:51:20;4.05;;;3.00;;
68475;SDS011;55464;48.266;14.188;2023-10-31T02:53:45;2.85;;;2.65;;
68475;SDS011;55464;48.266;14.188;2023-10-31T02:56:10;3.17;;;2.95;;
68475;SDS011;55464;48.266;14.188;2023-10-31T02:58:36;3.38;;;2.78;;
68475;SDS011;55464;48.266;14.188;2023-10-31T03:01:01;3.67;;;2.00;;
68475;SDS011;55464;48.266;14.188;2023-10-31T03:03:27;1.83;;;1.73;;
68475;SDS011;55464;48.266;14.188;2023-10-31T03:05:52;2.20;;;1.80;;
68475;SDS011;55464;48.266;14.188;2023-10-31T03:08:18;2.90;;;1.50;;
68475;SDS011;55464;48.266;14.188;2023-10-31T03:10:49;1.33;;;1.23;;
68475;SDS011;55464;48.266;14.188;2023-10-31T03:13:16;1.10;;;1.00;;
68475;SDS011;55464;48.266;14.188;2023-10-31T03:15:42;1.25;;;1.20;;
68475;SDS011;55464;48.266;14.188;2023-10-31T03:18:08;1.58;;;1.45;;
68475;SDS011;55464;48.266;14.188;2023-10-31T03:20:34;1.45;;;1.20;;
68475;SDS011;55464;48.266;14.188;2023-10-31T03:22:59;2.22;;;1.25;;
68475;SDS011;55464;48.266;14.188;2023-10-31T03:25:24;1.42;;;1.08;;
68475;SDS011;55464;48.266;14.188;2023-10-31T03:27:50;1.38;;;0.80;;
68475;SDS011;55464;48.266;14.188;2023-10-31T03:30:15;0.80;;;0.80;;
68475;SDS011;55464;48.266;14.188;2023-10-31T03:32:40;1.23;;;0.70;;
68475;SDS011;55464;48.266;14.188;2023-10-31T03:35:06;0.60;;;0.60;;
68475;SDS011;55464;48.266;14.188;2023-10-31T03:37:32;0.60;;;0.60;;
68475;SDS011;55464;48.266;14.188;2023-10-31T03:39:57;0.32;;;0.30;;
68475;SDS011;55464;48.266;14.188;2023-10-31T03:42:22;2.42;;;0.70;;
68475;SDS011;55464;48.266;14.188;2023-10-31T03:44:48;1.13;;;0.60;;
68475;SDS011;55464;48.266;14.188;2023-10-31T03:47:13;0.55;;;0.40;;
68475;SDS011;55464;48.266;14.188;2023-10-31T03:49:39;0.50;;;0.50;;
68475;SDS011;55464;48.266;14.188;2023-10-31T03:52:05;0.40;;;0.40;;
68475;SDS011;55464;48.266;14.188;2023-10-31T03:54:30;0.57;;;0.57;;
68475;SDS011;55464;48.266;14.188;2023-10-31T03:56:56;0.43;;;0.40;;
68475;SDS011;55464;48.266;14.188;2023-10-31T03:59:21;0.50;;;0.50;;
68475;SDS011;55464;48.266;14.188;2023-10-31T04:01:47;0.30;;;0.30;;
68475;SDS011;55464;48.266;14.188;2023-10-31T04:04:12;0.30;;;0.30;;
68475;SDS011;55464;48.266;14.188;2023-10-31T04:06:37;0.30;;;0.30;;
68475;SDS011;55464;48.266;14.188;2023-10-31T04:09:05;0.20;;;0.20;;
68475;SDS011;55464;48.266;14.188;2023-10-31T04:11:31;0.30;;;0.30;;
68475;SDS011;55464;48.266;14.188;2023-10-31T04:13:56;0.20;;;0.20;;
68475;SDS011;55464;48.266;14.188;2023-10-31T04:16:22;0.15;;;0.15;;
68475;SDS011;55464;48.266;14.188;2023-10-31T04:18:48;0.47;;;0.20;;
68475;SDS011;55464;48.266;14.188;2023-10-31T04:21:13;0.20;;;0.20;;
68475;SDS011;55464;48.266;14.188;2023-10-31T04:23:39;0.40;;;0.40;;
68475;SDS011;55464;48.266;14.188;2023-10-31T04:26:05;0.20;;;0.20;;
68475;SDS011;55464;48.266;14.188;2023-10-31T04:28:30;0.10;;;0.10;;
68475;SDS011;55464;48.266;14.188;2023-10-31T04:30:55;1.23;;;0.20;;
68475;SDS011;55464;48.266;14.188;2023-10-31T04:33:21;0.10;;;0.10;;
68475;SDS011;55464;48.266;14.188;2023-10-31T04:35:46;0.10;;;0.10;;
68475;SDS011;55464;48.266;14.188;2023-10-31T04:38:12;0.20;;;0.20;;
68475;SDS011;55464;48.266;14.188;2023-10-31T04:40:37;0.20;;;0.20;;
68475;SDS011;55464;48.266;14.188;2023-10-31T04:43:02;0.28;;;0.25;;
68475;SDS011;55464;48.266;14.188;2023-10-31T04:45:28;0.35;;;0.20;;
68475;SDS011;55464;48.266;14.188;2023-10-31T04:47:53;1.33;;;0.25;;
68475;SDS011;55464;48.266;14.188;2023-10-31T04:50:19;0.63;;;0.20;;
68475;SDS011;55464;48.266;14.188;2023-10-31T04:52:44;0.20;;;0.20;;
68475;SDS011;55464;48.266;14.188;2023-10-31T04:55:09;0.20;;;0.20;;
68475;SDS011;55464;48.266;14.188;2023-10-31T04:57:35;0.38;;;0.35;;
68475;SDS011;55464;48.266;14.188;2023-10-31T05:00:00;0.10;;;0.10;;
68475;SDS011;55464;48.266;14.188;2023-10-31T05:02:26;0.10;;;0.10;;
68475;SDS011;55464;48.266;14.188;2023-10-31T05:04:53;0.10;;;0.10;;
68475;SDS011;55464;48.266;14.188;2023-10-31T05:07:19;0.60;;;0.43;;
68475;SDS011;55464;48.266;14.188;2023-10-31T05:09:44;0.30;;;0.30;;
68475;SDS011;55464;48.266;14.188;2023-10-31T05:12:10;0.30;;;0.30;;
68475;SDS011;55464;48.266;14.188;2023-10-31T05:14:35;0.30;;;0.30;;
68475;SDS011;55464;48.266;14.188;2023-10-31T05:17:01;0.30;;;0.20;;
68475;SDS011;55464;48.266;14.188;2023-10-31T05:19:26;0.20;;;0.20;;
68475;SDS011;55464;48.266;14.188;2023-10-31T05:21:52;0.15;;;0.15;;
68475;SDS011;55464;48.266;14.188;2023-10-31T05:24:17;0.20;;;0.20;;
68475;SDS011;55464;48.266;14.188;2023-10-31T05:26:43;0.40;;;0.30;;
68475;SDS011;55464;48.266;14.188;2023-10-31T05:29:08;0.20;;;0.20;;
68475;SDS011;55464;48.266;14.188;2023-10-31T05:31:34;0.20;;;0.20;;
68475;SDS011;55464;48.266;14.188;2023-10-31T05:34:00;0.20;;;0.20;;
68475;SDS011;55464;48.266;14.188;2023-10-31T05:36:26;0.13;;;0.13;;
68475;SDS011;55464;48.266;14.188;2023-10-31T05:38:53;0.20;;;0.20;;
68475;SDS011;55464;48.266;14.188;2023-10-31T05:41:18;0.10;;;0.10;;
68475;SDS011;55464;48.266;14.188;2023-10-31T05:43:44;0.20;;;0.20;;
68475;SDS011;55464;48.266;14.188;2023-10-31T05:46:09;0.40;;;0.30;;
68475;SDS011;55464;48.266;14.188;2023-10-31T05:48:38;0.25;;;0.20;;
68475;SDS011;55464;48.266;14.188;2023-10-31T05:51:10;0.25;;;0.25;;
68475;SDS011;55464;48.266;14.188;2023-10-31T05:53:37;3.90;;;0.28;;
68475;SDS011;55464;48.266;14.188;2023-10-31T05:56:04;0.85;;;0.32;;
68475;SDS011;55464;48.266;14.188;2023-10-31T05:58:32;0.20;;;0.20;;
68475;SDS011;55464;48.266;14.188;2023-10-31T06:00:57;0.73;;;0.30;;
68475;SDS011;55464;48.266;14.188;2023-10-31T06:03:23;0.65;;;0.20;;
68475;SDS011;55464;48.266;14.188;2023-10-31T06:05:48;2.17;;;0.30;;
68475;SDS011;55464;48.266;14.188;2023-10-31T06:08:14;0.30;;;0.30;;
68475;SDS011;55464;48.266;14.188;2023-10-31T06:10:39;0.20;;;0.20;;
68475;SDS011;55464;48.266;14.188;2023-10-31T06:13:04;1.25;;;0.20;;
68475;SDS011;55464;48.266;14.188;2023-10-31T06:15:30;0.22;;;0.20;;
68475;SDS011;55464;48.266;14.188;2023-10-31T06:17:55;0.20;;;0.20;;
68475;SDS011;55464;48.266;14.188;2023-10-31T06:20:21;0.50;;;0.35;;
68475;SDS011;55464;48.266;14.188;2023-10-31T06:22:46;0.40;;;0.40;;
68475;SDS011;55464;48.266;14.188;2023-10-31T06:25:11;0.30;;;0.30;;
68475;SDS011;55464;48.266;14.188;2023-10-31T06:27:37;0.20;;;0.13;;
68475;SDS011;55464;48.266;14.188;2023-10-31T06:30:02;1.67;;;0.25;;
68475;SDS011;55464;48.266;14.188;2023-10-31T06:32:28;0.25;;;0.20;;
68475;SDS011;55464;48.266;14.188;2023-10-31T06:34:53;0.85;;;0.50;;
68475;SDS011;55464;48.266;14.188;2023-10-31T06:37:19;0.30;;;0.30;;
68475;SDS011;55464;48.266;14.188;2023-10-31T06:39:44;5.97;;;0.60;;
68475;SDS011;55464;48.266;14.188;2023-10-31T06:42:09;0.45;;;0.30;;
68475;SDS011;55464;48.266;14.188;2023-10-31T06:44:35;3.53;;;0.80;;
68475;SDS011;55464;48.266;14.188;2023-10-31T06:47:00;0.60;;;0.50;;
68475;SDS011;55464;48.266;14.188;2023-10-31T06:49:25;0.50;;;0.50;;
68475;SDS011;55464;48.266;14.188;2023-10-31T06:51:51;0.20;;;0.20;;
68475;SDS011;55464;48.266;14.188;2023-10-31T06:54:16;0.30;;;0.30;;
68475;SDS011;55464;48.266;14.188;2023-10-31T06:56:42;0.20;;;0.20;;
68475;SDS011;55464;48.266;14.188;2023-10-31T06:59:07;0.60;;;0.25;;
68475;SDS011;55464;48.266;14.188;2023-10-31T07:01:33;0.47;;;0.35;;
68475;SDS011;55464;48.266;14.188;2023-10-31T07:03:59;0.82;;;0.30;;
68475;SDS011;55464;48.266;14.188;2023-10-31T07:06:24;0.20;;;0.20;;
68475;SDS011;55464;48.266;14.188;2023-10-31T07:08:50;0.60;;;0.20;;
68475;SDS011;55464;48.266;14.188;2023-10-31T07:11:15;0.20;;;0.20;;
68475;SDS011;55464;48.266;14.188;2023-10-31T07:13:41;0.20;;;0.20;;
68475;SDS011;55464;48.266;14.188;2023-10-31T07:16:06;0.65;;;0.38;;
68475;SDS011;55464;48.266;14.188;2023-10-31T07:18:32;0.73;;;0.40;;
68475;SDS011;55464;48.266;14.188;2023-10-31T07:20:57;0.98;;;0.30;;
68475;SDS011;55464;48.266;14.188;2023-10-31T07:23:23;0.28;;;0.28;;
68475;SDS011;55464;48.266;14.188;2023-10-31T07:25:48;0.30;;;0.20;;
68475;SDS011;55464;48.266;14.188;2023-10-31T07:28:14;0.30;;;0.20;;
68475;SDS011;55464;48.266;14.188;2023-10-31T07:30:39;0.17;;;0.17;;
68475;SDS011;55464;48.266;14.188;2023-10-31T07:33:05;1.20;;;0.32;;
68475;SDS011;55464;48.266;14.188;2023-10-31T07:35:30;1.55;;;0.20;;
68475;SDS011;55464;48.266;14.188;2023-10-31T07:37:56;0.20;;;0.20;;
68475;SDS011;55464;48.266;14.188;2023-10-31T07:40:21;2.47;;;0.50;;
68475;SDS011;55464;48.266;14.188;2023-10-31T07:42:46;0.30;;;0.30;;
68475;SDS011;55464;48.266;14.188;2023-10-31T07:45:12;0.90;;;0.20;;
68475;SDS011;55464;48.266;14.188;2023-10-31T07:47:37;0.30;;;0.25;;
68475;SDS011;55464;48.266;14.188;2023-10-31T07:50:03;0.25;;;0.25;;
68475;SDS011;55464;48.266;14.188;2023-10-31T07:52:29;1.38;;;0.22;;
68475;SDS011;55464;48.266;14.188;2023-10-31T07:54:55;0.55;;;0.45;;
68475;SDS011;55464;48.266;14.188;2023-10-31T07:57:20;0.75;;;0.40;;
68475;SDS011;55464;48.266;14.188;2023-10-31T07:59:46;2.42;;;0.40;;
68475;SDS011;55464;48.266;14.188;2023-10-31T08:02:11;0.85;;;0.30;;
68475;SDS011;55464;48.266;14.188;2023-10-31T08:04:36;1.48;;;0.30;;
68475;SDS011;55464;48.266;14.188;2023-10-31T08:07:02;0.77;;;0.43;;
68475;SDS011;55464;48.266;14.188;2023-10-31T08:09:27;0.52;;;0.30;;
68475;SDS011;55464;48.266;14.188;2023-10-31T08:11:53;4.75;;;0.40;;
68475;SDS011;55464;48.266;14.188;2023-10-31T08:14:18;1.80;;;0.40;;
68475;SDS011;55464;48.266;14.188;2023-10-31T08:16:44;0.65;;;0.40;;
68475;SDS011;55464;48.266;14.188;2023-10-31T08:19:09;0.38;;;0.30;;
68475;SDS011;55464;48.266;14.188;2023-10-31T08:21:35;4.30;;;0.32;;
68475;SDS011;55464;48.266;14.188;2023-10-31T08:24:02;0.80;;;0.30;;
68475;SDS011;55464;48.266;14.188;2023-10-31T08:26:29;1.08;;;0.43;;
68475;SDS011;55464;48.266;14.188;2023-10-31T08:28:57;1.83;;;0.50;;
68475;SDS011;55464;48.266;14.188;2023-10-31T08:31:23;0.55;;;0.40;;
68475;SDS011;55464;48.266;14.188;2023-10-31T08:33:49;0.30;;;0.30;;
68475;SDS011;55464;48.266;14.188;2023-10-31T08:36:14;0.40;;;0.38;;
68475;SDS011;55464;48.266;14.188;2023-10-31T08:38:40;0.55;;;0.30;;
68475;SDS011;55464;48.266;14.188;2023-10-31T08:41:05;0.43;;;0.30;;
68475;SDS011;55464;48.266;14.188;2023-10-31T08:43:31;0.47;;;0.47;;
68475;SDS011;55464;48.266;14.188;2023-10-31T08:45:56;0.90;;;0.80;;
68475;SDS011;55464;48.266;14.188;2023-10-31T08:48:21;0.60;;;0.60;;
68475;SDS011;55464;48.266;14.188;2023-10-31T08:50:47;0.85;;;0.85;;
68475;SDS011;55464;48.266;14.188;2023-10-31T08:53:13;0.50;;;0.47;;
68475;SDS011;55464;48.266;14.188;2023-10-31T08:55:38;1.20;;;0.30;;
68475;SDS011;55464;48.266;14.188;2023-10-31T08:58:04;2.65;;;0.40;;
68475;SDS011;55464;48.266;14.188;2023-10-31T09:00:29;0.30;;;0.30;;
68475;SDS011;55464;48.266;14.188;2023-10-31T09:02:55;0.68;;;0.32;;
68475;SDS011;55464;48.266;14.188;2023-10-31T09:05:20;0.52;;;0.38;;
68475;SDS011;55464;48.266;14.188;2023-10-31T09:07:46;2.05;;;0.35;;
68475;SDS011;55464;48.266;14.188;2023-10-31T09:10:12;0.40;;;0.40;;
68475;SDS011;55464;48.266;14.188;2023-10-31T09:12:37;0.43;;;0.43;;
68475;SDS011;55464;48.266;14.188;2023-10-31T09:15:03;0.52;;;0.50;;
68475;SDS011;55464;48.266;14.188;2023-10-31T09:17:29;0.80;;;0.30;;
68475;SDS011;55464;48.266;14.188;2023-10-31T09:19:55;0.77;;;0.50;;
68475;SDS011;55464;48.266;14.188;2023-10-31T09:22:24;0.30;;;0.30;;
68475;SDS011;55464;48.266;14.188;2023-10-31T09:24:49;1.30;;;0.50;;
68475;SDS011;55464;48.266;14.188;2023-10-31T09:27:15;0.65;;;0.40;;
68475;SDS011;55464;48.266;14.188;2023-10-31T09:29:40;0.85;;;0.47;;
68475;SDS011;55464;48.266;14.188;2023-10-31T09:32:06;1.00;;;0.57;;
68475;SDS011;55464;48.266;14.188;2023-10-31T09:34:31;0.30;;;0.30;;
68475;SDS011;55464;48.266;14.188;2023-10-31T09:36:57;2.22;;;0.60;;
68475;SDS011;55464;48.266;14.188;2023-10-31T09:39:23;0.40;;;0.40;;
68475;SDS011;55464;48.266;14.188;2023-10-31T09:41:49;0.77;;;0.45;;
68475;SDS011;55464;48.266;14.188;2023-10-31T09:44:14;4.43;;;0.68;;
68475;SDS011;55464;48.266;14.188;2023-10-31T09:46:40;0.52;;;0.43;;
68475;SDS011;55464;48.266;14.188;2023-10-31T09:49:06;0.50;;;0.50;;
68475;SDS011;55464;48.266;14.188;2023-10-31T09:51:33;0.63;;;0.63;;
68475;SDS011;55464;48.266;14.188;2023-10-31T09:53:58;2.05;;;0.43;;
68475;SDS011;55464;48.266;14.188;2023-10-31T09:56:24;0.55;;;0.55;;
68475;SDS011;55464;48.266;14.188;2023-10-31T09:58:50;3.22;;;0.57;;
68475;SDS011;55464;48.266;14.188;2023-10-31T10:01:16;0.52;;;0.52;;
68475;SDS011;55464;48.266;14.188;2023-10-31T10:03:42;0.50;;;0.50;;
68475;SDS011;55464;48.266;14.188;2023-10-31T10:06:08;2.15;;;0.80;;
68475;SDS011;55464;48.266;14.188;2023-10-31T10:08:37;1.20;;;0.60;;
68475;SDS011;55464;48.266;14.188;2023-10-31T10:11:03;1.08;;;0.70;;
68475;SDS011;55464;48.266;14.188;2023-10-31T10:13:30;0.93;;;0.70;;
68475;SDS011;55464;48.266;14.188;2023-10-31T10:15:55;0.60;;;0.50;;
68475;SDS011;55464;48.266;14.188;2023-10-31T10:18:24;1.83;;;0.40;;
68475;SDS011;55464;48.266;14.188;2023-10-31T10:20:54;0.80;;;0.70;;
68475;SDS011;55464;48.266;14.188;2023-10-31T10:23:21;0.88;;;0.70;;
68475;SDS011;55464;48.266;14.188;2023-10-31T10:25:50;0.73;;;0.70;;
68475;SDS011;55464;48.266;14.188;2023-10-31T10:28:17;1.17;;;0.77;;
68475;SDS011;55464;48.266;14.188;2023-10-31T10:30:45;3.25;;;0.95;;
68475;SDS011;55464;48.266;14.188;2023-10-31T10:33:14;1.15;;;0.77;;
68475;SDS011;55464;48.266;14.188;2023-10-31T10:35:40;1.63;;;0.85;;
68475;SDS011;55464;48.266;14.188;2023-10-31T10:38:10;1.85;;;0.57;;
68475;SDS011;55464;48.266;14.188;2023-10-31T10:40:40;3.25;;;0.88;;
68475;SDS011;55464;48.266;14.188;2023-10-31T10:43:12;1.48;;;0.90;;
68475;SDS011;55464;48.266;14.188;2023-10-31T10:45:43;2.08;;;0.70;;
68475;SDS011;55464;48.266;14.188;2023-10-31T10:48:13;1.80;;;0.80;;
68475;SDS011;55464;48.266;14.188;2023-10-31T10:50:41;2.90;;;0.85;;
68475;SDS011;55464;48.266;14.188;2023-10-31T10:53:10;1.90;;;0.70;;
68475;SDS011;55464;48.266;14.188;2023-10-31T10:55:39;1.17;;;0.68;;
68475;SDS011;55464;48.266;14.188;2023-10-31T10:58:11;2.17;;;0.52;;
68475;SDS011;55464;48.266;14.188;2023-10-31T11:00:46;1.40;;;0.60;;
68475;SDS011;55464;48.266;14.188;2023-10-31T11:03:11;1.48;;;0.68;;
68475;SDS011;55464;48.266;14.188;2023-10-31T11:05:38;0.30;;;0.30;;
68475;SDS011;55464;48.266;14.188;2023-10-31T11:08:05;0.40;;;0.40;;
68475;SDS011;55464;48.266;14.188;2023-10-31T11:10:31;0.20;;;0.20;;
68475;SDS011;55464;48.266;14.188;2023-10-31T11:12:57;1.48;;;0.40;;
68475;SDS011;55464;48.266;14.188;2023-10-31T11:15:23;0.30;;;0.20;;
68475;SDS011;55464;48.266;14.188;2023-10-31T11:17:50;0.38;;;0.30;;
68475;SDS011;55464;48.266;14.188;2023-10-31T11:20:17;0.30;;;0.20;;
68475;SDS011;55464;48.266;14.188;2023-10-31T11:22:44;0.30;;;0.30;;
68475;SDS011;55464;48.266;14.188;2023-10-31T11:25:19;0.77;;;0.35;;
68475;SDS011;55464;48.266;14.188;2023-10-31T11:27:45;2.15;;;0.57;;
68475;SDS011;55464;48.266;14.188;2023-10-31T11:30:21;0.47;;;0.40;;
68475;SDS011;55464;48.266;14.188;2023-10-31T11:32:54;0.40;;;0.40;;
68475;SDS011;55464;48.266;14.188;2023-10-31T11:35:21;0.40;;;0.40;;
68475;SDS011;55464;48.266;14.188;2023-10-31T11:37:48;1.10;;;0.60;;
68475;SDS011;55464;48.266;14.188;2023-10-31T11:40:17;0.60;;;0.60;;
68475;SDS011;55464;48.266;14.188;2023-10-31T11:42:48;1.77;;;0.60;;
68475;SDS011;55464;48.266;14.188;2023-10-31T11:47:52;0.50;;;0.50;;
68475;SDS011;55464;48.266;14.188;2023-10-31T11:50:17;0.88;;;0.70;;
68475;SDS011;55464;48.266;14.188;2023-10-31T11:52:43;3.45;;;0.77;;
68475;SDS011;55464;48.266;14.188;2023-10-31T11:55:12;3.22;;;0.60;;
68475;SDS011;55464;48.266;14.188;2023-10-31T11:57:40;2.00;;;0.50;;
68475;SDS011;55464;48.266;14.188;2023-10-31T12:00:06;1.52;;;0.47;;
68475;SDS011;55464;48.266;14.188;2023-10-31T12:02:35;1.00;;;0.50;;
68475;SDS011;55464;48.266;14.188;2023-10-31T12:05:09;0.50;;;0.50;;
68475;SDS011;55464;48.266;14.188;2023-10-31T12:07:44;0.75;;;0.40;;
68475;SDS011;55464;48.266;14.188;2023-10-31T12:10:10;2.10;;;0.55;;
68475;SDS011;55464;48.266;14.188;2023-10-31T12:12:36;0.57;;;0.40;;
68475;SDS011;55464;48.266;14.188;2023-10-31T12:15:08;0.50;;;0.50;;
68475;SDS011;55464;48.266;14.188;2023-10-31T12:17:35;0.40;;;0.35;;
68475;SDS011;55464;48.266;14.188;2023-10-31T12:20:04;0.30;;;0.30;;
68475;SDS011;55464;48.266;14.188;2023-10-31T12:22:31;1.45;;;0.38;;
68475;SDS011;55464;48.266;14.188;2023-10-31T12:25:00;1.35;;;0.40;;
68475;SDS011;55464;48.266;14.188;2023-10-31T12:27:41;0.98;;;0.40;;
68475;SDS011;55464;48.266;14.188;2023-10-31T12:30:11;2.20;;;0.70;;
68475;SDS011;55464;48.266;14.188;2023-10-31T12:32:39;0.40;;;0.40;;
68475;SDS011;55464;48.266;14.188;2023-10-31T12:35:05;0.63;;;0.60;;
68475;SDS011;55464;48.266;14.188;2023-10-31T12:37:31;1.42;;;0.60;;
68475;SDS011;55464;48.266;14.188;2023-10-31T12:39:58;1.35;;;0.50;;
68475;SDS011;55464;48.266;14.188;2023-10-31T12:42:27;0.82;;;0.60;;
68475;SDS011;55464;48.266;14.188;2023-10-31T12:44:55;0.88;;;0.57;;
68475;SDS011;55464;48.266;14.188;2023-10-31T12:47:21;0.75;;;0.40;;
68475;SDS011;55464;48.266;14.188;2023-10-31T12:49:47;3.65;;;0.80;;
68475;SDS011;55464;48.266;14.188;2023-10-31T12:52:12;0.50;;;0.50;;
68475;SDS011;55464;48.266;14.188;2023-10-31T12:54:38;1.33;;;0.40;;
68475;SDS011;55464;48.266;14.188;2023-10-31T12:57:04;1.52;;;0.50;;
68475;SDS011;55464;48.266;14.188;2023-10-31T12:59:32;1.73;;;0.70;;
68475;SDS011;55464;48.266;14.188;2023-10-31T13:01:58;3.40;;;0.80;;
68475;SDS011;55464;48.266;14.188;2023-10-31T13:04:27;1.55;;;0.80;;
68475;SDS011;55464;48.266;14.188;2023-10-31T13:06:58;0.88;;;0.77;;
68475;SDS011;55464;48.266;14.188;2023-10-31T13:09:36;1.08;;;0.82;;
68475;SDS011;55464;48.266;14.188;2023-10-31T13:12:04;0.40;;;0.40;;
68475;SDS011;55464;48.266;14.188;2023-10-31T13:14:30;1.23;;;0.68;;
68475;SDS011;55464;48.266;14.188;2023-10-31T13:16:58;1.15;;;0.50;;
68475;SDS011;55464;48.266;14.188;2023-10-31T13:19:24;0.88;;;0.50;;
68475;SDS011;55464;48.266;14.188;2023-10-31T13:21:49;1.73;;;0.50;;
68475;SDS011;55464;48.266;14.188;2023-10-31T13:24:15;0.55;;;0.50;;
68475;SDS011;55464;48.266;14.188;2023-10-31T13:26:40;3.03;;;0.50;;
68475;SDS011;55464;48.266;14.188;2023-10-31T13:29:06;1.35;;;0.77;;
68475;SDS011;55464;48.266;14.188;2023-10-31T13:31:31;2.17;;;0.75;;
68475;SDS011;55464;48.266;14.188;2023-10-31T13:33:56;1.55;;;0.50;;
68475;SDS011;55464;48.266;14.188;2023-10-31T13:36:22;0.40;;;0.40;;
68475;SDS011;55464;48.266;14.188;2023-10-31T13:38:47;1.95;;;0.55;;
68475;SDS011;55464;48.266;14.188;2023-10-31T13:41:13;1.80;;;0.77;;
68475;SDS011;55464;48.266;14.188;2023-10-31T13:43:39;2.95;;;0.90;;
68475;SDS011;55464;48.266;14.188;2023-10-31T13:46:05;1.80;;;0.80;;
68475;SDS011;55464;48.266;14.188;2023-10-31T13:48:31;1.58;;;0.90;;
68475;SDS011;55464;48.266;14.188;2023-10-31T13:50:56;0.70;;;0.57;;
68475;SDS011;55464;48.266;14.188;2023-10-31T13:53:22;1.40;;;0.70;;
68475;SDS011;55464;48.266;14.188;2023-10-31T13:55:47;1.98;;;0.70;;
68475;SDS011;55464;48.266;14.188;2023-10-31T13:58:13;1.60;;;0.85;;
68475;SDS011;55464;48.266;14.188;2023-10-31T14:00:39;1.70;;;1.02;;
68475;SDS011;55464;48.266;14.188;2023-10-31T14:03:04;0.75;;;0.70;;
68475;SDS011;55464;48.266;14.188;2023-10-31T14:05:30;1.63;;;0.77;;
68475;SDS011;55464;48.266;14.188;2023-10-31T14:07:56;2.17;;;1.05;;
68475;SDS011;55464;48.266;14.188;2023-10-31T14:10:21;7.75;;;0.75;;
68475;SDS011;55464;48.266;14.188;2023-10-31T14:12:46;1.73;;;0.77;;
68475;SDS011;55464;48.266;14.188;2023-10-31T14:15:12;2.45;;;0.90;;
68475;SDS011;55464;48.266;14.188;2023-10-31T14:17:38;2.03;;;0.80;;
68475;SDS011;55464;48.266;14.188;2023-10-31T14:20:03;1.42;;;0.95;;
68475;SDS011;55464;48.266;14.188;2023-10-31T14:22:29;1.42;;;0.88;;
68475;SDS011;55464;48.266;14.188;2023-10-31T14:24:54;1.30;;;0.85;;
68475;SDS011;55464;48.266;14.188;2023-10-31T14:27:20;1.95;;;0.82;;
68475;SDS011;55464;48.266;14.188;2023-10-31T14:29:45;1.33;;;1.00;;
68475;SDS011;55464;48.266;14.188;2023-10-31T14:32:11;3.10;;;0.90;;